ΕΜΥ, Εθνική Μετεωρολογική Υπηρεσία - Δελτία Καιρού, Προγνώσεις

ΑΕΡΟΝΑΥΤΙΛΙΑ

GREEK AIRPORTS CODES

LGHI 171450Z 19007KT 9999 -RA SCT025 22/12 Q1000=

EUROPEAN AIRPORTS CODES

LFPO 171530Z 33006KT 300V360 9999 -SHRA FEW032 FEW040TCUBKN046 08/03 Q1014 TEMPO -SHRA=